sensor_id;sensor_type;location;lat;lon;timestamp;P1;durP1;ratioP1;P2;durP2;ratioP2
12433;SDS011;6281;49.038;8.372;2022-12-18T00:02:26;37.13;;;18.20;;
12433;SDS011;6281;49.038;8.372;2022-12-18T00:04:55;36.80;;;16.80;;
12433;SDS011;6281;49.038;8.372;2022-12-18T00:07:22;34.40;;;17.02;;
12433;SDS011;6281;49.038;8.372;2022-12-18T00:09:49;39.50;;;18.77;;
12433;SDS011;6281;49.038;8.372;2022-12-18T00:12:17;39.05;;;17.73;;
12433;SDS011;6281;49.038;8.372;2022-12-18T00:14:49;31.40;;;16.45;;
12433;SDS011;6281;49.038;8.372;2022-12-18T00:17:18;35.55;;;18.45;;
12433;SDS011;6281;49.038;8.372;2022-12-18T00:19:46;35.58;;;17.27;;
12433;SDS011;6281;49.038;8.372;2022-12-18T00:22:14;40.53;;;18.60;;
12433;SDS011;6281;49.038;8.372;2022-12-18T00:24:42;39.75;;;18.98;;
12433;SDS011;6281;49.038;8.372;2022-12-18T00:27:09;36.20;;;17.10;;
12433;SDS011;6281;49.038;8.372;2022-12-18T00:29:35;39.35;;;19.27;;
12433;SDS011;6281;49.038;8.372;2022-12-18T00:32:02;45.58;;;19.17;;
12433;SDS011;6281;49.038;8.372;2022-12-18T00:34:41;41.53;;;19.00;;
12433;SDS011;6281;49.038;8.372;2022-12-18T00:37:15;32.72;;;17.20;;
12433;SDS011;6281;49.038;8.372;2022-12-18T00:39:53;33.75;;;16.88;;
12433;SDS011;6281;49.038;8.372;2022-12-18T00:42:20;36.35;;;17.80;;
12433;SDS011;6281;49.038;8.372;2022-12-18T00:45:05;37.10;;;18.15;;
12433;SDS011;6281;49.038;8.372;2022-12-18T00:47:32;41.65;;;18.80;;
12433;SDS011;6281;49.038;8.372;2022-12-18T00:49:59;35.03;;;17.45;;
12433;SDS011;6281;49.038;8.372;2022-12-18T00:52:28;37.33;;;19.15;;
12433;SDS011;6281;49.038;8.372;2022-12-18T00:54:55;39.03;;;18.90;;
12433;SDS011;6281;49.038;8.372;2022-12-18T00:57:23;42.47;;;17.10;;
12433;SDS011;6281;49.038;8.372;2022-12-18T00:59:52;37.92;;;18.48;;
12433;SDS011;6281;49.038;8.372;2022-12-18T01:02:19;36.95;;;18.00;;
12433;SDS011;6281;49.038;8.372;2022-12-18T01:04:46;39.55;;;18.17;;
12433;SDS011;6281;49.038;8.372;2022-12-18T01:07:13;33.40;;;17.08;;
12433;SDS011;6281;49.038;8.372;2022-12-18T01:09:46;39.65;;;19.75;;
12433;SDS011;6281;49.038;8.372;2022-12-18T01:12:13;35.03;;;18.02;;
12433;SDS011;6281;49.038;8.372;2022-12-18T01:14:40;36.17;;;17.05;;
12433;SDS011;6281;49.038;8.372;2022-12-18T01:17:06;41.28;;;18.75;;
12433;SDS011;6281;49.038;8.372;2022-12-18T01:19:34;36.88;;;17.13;;
12433;SDS011;6281;49.038;8.372;2022-12-18T01:22:01;35.83;;;17.67;;
12433;SDS011;6281;49.038;8.372;2022-12-18T01:24:28;42.60;;;18.90;;
12433;SDS011;6281;49.038;8.372;2022-12-18T01:26:59;35.17;;;17.38;;
12433;SDS011;6281;49.038;8.372;2022-12-18T01:29:26;33.83;;;17.38;;
12433;SDS011;6281;49.038;8.372;2022-12-18T01:31:54;36.65;;;17.20;;
12433;SDS011;6281;49.038;8.372;2022-12-18T01:34:21;33.28;;;16.55;;
12433;SDS011;6281;49.038;8.372;2022-12-18T01:36:48;44.20;;;18.83;;
12433;SDS011;6281;49.038;8.372;2022-12-18T01:39:17;32.55;;;16.90;;
12433;SDS011;6281;49.038;8.372;2022-12-18T01:41:44;43.28;;;16.73;;
12433;SDS011;6281;49.038;8.372;2022-12-18T01:47:47;33.72;;;16.58;;
12433;SDS011;6281;49.038;8.372;2022-12-18T01:50:17;35.58;;;16.85;;
12433;SDS011;6281;49.038;8.372;2022-12-18T01:52:47;35.75;;;17.52;;
12433;SDS011;6281;49.038;8.372;2022-12-18T01:55:17;38.42;;;17.80;;
12433;SDS011;6281;49.038;8.372;2022-12-18T01:57:46;38.80;;;17.75;;
12433;SDS011;6281;49.038;8.372;2022-12-18T02:00:16;34.45;;;16.63;;
12433;SDS011;6281;49.038;8.372;2022-12-18T02:02:45;34.83;;;16.20;;
12433;SDS011;6281;49.038;8.372;2022-12-18T02:05:13;32.20;;;15.55;;
12433;SDS011;6281;49.038;8.372;2022-12-18T02:07:45;38.25;;;17.60;;
12433;SDS011;6281;49.038;8.372;2022-12-18T02:10:22;37.75;;;15.63;;
12433;SDS011;6281;49.038;8.372;2022-12-18T02:12:56;40.75;;;17.35;;
12433;SDS011;6281;49.038;8.372;2022-12-18T02:15:34;34.53;;;17.10;;
12433;SDS011;6281;49.038;8.372;2022-12-18T02:18:07;36.38;;;17.50;;
12433;SDS011;6281;49.038;8.372;2022-12-18T02:20:38;37.90;;;17.73;;
12433;SDS011;6281;49.038;8.372;2022-12-18T02:23:12;32.78;;;16.33;;
12433;SDS011;6281;49.038;8.372;2022-12-18T02:25:57;37.30;;;17.50;;
12433;SDS011;6281;49.038;8.372;2022-12-18T02:28:40;29.02;;;16.50;;
12433;SDS011;6281;49.038;8.372;2022-12-18T02:31:11;37.00;;;17.42;;
12433;SDS011;6281;49.038;8.372;2022-12-18T02:33:40;39.80;;;18.95;;
12433;SDS011;6281;49.038;8.372;2022-12-18T02:36:10;40.47;;;18.08;;
12433;SDS011;6281;49.038;8.372;2022-12-18T02:38:39;36.38;;;15.70;;
12433;SDS011;6281;49.038;8.372;2022-12-18T02:41:10;32.30;;;16.95;;
12433;SDS011;6281;49.038;8.372;2022-12-18T02:43:37;35.13;;;18.35;;
12433;SDS011;6281;49.038;8.372;2022-12-18T02:48:51;38.00;;;17.58;;
12433;SDS011;6281;49.038;8.372;2022-12-18T02:51:26;40.42;;;18.27;;
12433;SDS011;6281;49.038;8.372;2022-12-18T02:54:00;41.15;;;18.70;;
12433;SDS011;6281;49.038;8.372;2022-12-18T02:56:34;43.95;;;17.58;;
12433;SDS011;6281;49.038;8.372;2022-12-18T02:59:06;40.28;;;18.67;;
12433;SDS011;6281;49.038;8.372;2022-12-18T03:01:38;40.28;;;17.80;;
12433;SDS011;6281;49.038;8.372;2022-12-18T03:04:11;38.28;;;18.17;;
12433;SDS011;6281;49.038;8.372;2022-12-18T03:06:44;40.22;;;18.55;;
12433;SDS011;6281;49.038;8.372;2022-12-18T03:09:15;40.17;;;18.02;;
12433;SDS011;6281;49.038;8.372;2022-12-18T03:11:47;34.53;;;17.75;;
12433;SDS011;6281;49.038;8.372;2022-12-18T03:14:38;39.22;;;16.80;;
12433;SDS011;6281;49.038;8.372;2022-12-18T03:17:09;38.22;;;16.65;;
12433;SDS011;6281;49.038;8.372;2022-12-18T03:19:39;37.40;;;17.52;;
12433;SDS011;6281;49.038;8.372;2022-12-18T03:22:08;37.50;;;17.05;;
12433;SDS011;6281;49.038;8.372;2022-12-18T03:24:36;39.55;;;17.20;;
12433;SDS011;6281;49.038;8.372;2022-12-18T03:27:06;37.13;;;18.60;;
12433;SDS011;6281;49.038;8.372;2022-12-18T03:29:37;36.72;;;18.33;;
12433;SDS011;6281;49.038;8.372;2022-12-18T03:32:23;39.53;;;17.75;;
12433;SDS011;6281;49.038;8.372;2022-12-18T03:34:56;37.13;;;17.15;;
12433;SDS011;6281;49.038;8.372;2022-12-18T03:37:25;32.28;;;15.80;;
12433;SDS011;6281;49.038;8.372;2022-12-18T03:39:52;40.13;;;16.55;;
12433;SDS011;6281;49.038;8.372;2022-12-18T03:42:21;31.85;;;16.45;;
12433;SDS011;6281;49.038;8.372;2022-12-18T03:44:55;31.85;;;16.88;;
12433;SDS011;6281;49.038;8.372;2022-12-18T03:47:27;37.78;;;17.17;;
12433;SDS011;6281;49.038;8.372;2022-12-18T03:49:59;33.05;;;15.45;;
12433;SDS011;6281;49.038;8.372;2022-12-18T03:52:36;30.83;;;15.40;;
12433;SDS011;6281;49.038;8.372;2022-12-18T03:55:05;31.92;;;15.60;;
12433;SDS011;6281;49.038;8.372;2022-12-18T03:57:34;32.58;;;15.20;;
12433;SDS011;6281;49.038;8.372;2022-12-18T04:00:04;34.50;;;15.50;;
12433;SDS011;6281;49.038;8.372;2022-12-18T04:02:35;35.30;;;15.43;;
12433;SDS011;6281;49.038;8.372;2022-12-18T04:05:05;37.72;;;16.23;;
12433;SDS011;6281;49.038;8.372;2022-12-18T04:07:35;30.40;;;15.35;;
12433;SDS011;6281;49.038;8.372;2022-12-18T04:10:04;34.47;;;16.27;;
12433;SDS011;6281;49.038;8.372;2022-12-18T04:12:34;36.22;;;16.35;;
12433;SDS011;6281;49.038;8.372;2022-12-18T04:15:03;36.67;;;16.33;;
12433;SDS011;6281;49.038;8.372;2022-12-18T04:17:31;38.00;;;16.27;;
12433;SDS011;6281;49.038;8.372;2022-12-18T04:19:59;30.17;;;15.60;;
12433;SDS011;6281;49.038;8.372;2022-12-18T04:22:26;31.58;;;15.88;;
12433;SDS011;6281;49.038;8.372;2022-12-18T04:24:53;35.70;;;15.35;;
12433;SDS011;6281;49.038;8.372;2022-12-18T04:27:20;37.00;;;15.98;;
12433;SDS011;6281;49.038;8.372;2022-12-18T04:29:47;35.30;;;16.17;;
12433;SDS011;6281;49.038;8.372;2022-12-18T04:32:14;35.25;;;16.55;;
12433;SDS011;6281;49.038;8.372;2022-12-18T04:34:41;37.92;;;16.20;;
12433;SDS011;6281;49.038;8.372;2022-12-18T04:37:09;38.88;;;16.45;;
12433;SDS011;6281;49.038;8.372;2022-12-18T04:39:36;34.88;;;16.77;;
12433;SDS011;6281;49.038;8.372;2022-12-18T04:42:03;32.78;;;14.32;;
12433;SDS011;6281;49.038;8.372;2022-12-18T04:44:30;36.10;;;17.40;;
12433;SDS011;6281;49.038;8.372;2022-12-18T04:46:56;36.50;;;15.60;;
12433;SDS011;6281;49.038;8.372;2022-12-18T04:49:23;34.80;;;16.98;;
12433;SDS011;6281;49.038;8.372;2022-12-18T04:51:50;35.30;;;15.25;;
12433;SDS011;6281;49.038;8.372;2022-12-18T04:54:19;34.05;;;16.50;;
12433;SDS011;6281;49.038;8.372;2022-12-18T04:56:46;44.95;;;16.10;;
12433;SDS011;6281;49.038;8.372;2022-12-18T04:59:13;31.02;;;15.05;;
12433;SDS011;6281;49.038;8.372;2022-12-18T05:01:40;39.08;;;16.55;;
12433;SDS011;6281;49.038;8.372;2022-12-18T05:04:07;34.67;;;15.93;;
12433;SDS011;6281;49.038;8.372;2022-12-18T05:06:34;34.65;;;16.52;;
12433;SDS011;6281;49.038;8.372;2022-12-18T05:09:01;37.38;;;17.40;;
12433;SDS011;6281;49.038;8.372;2022-12-18T05:11:29;36.90;;;17.83;;
12433;SDS011;6281;49.038;8.372;2022-12-18T05:13:56;36.25;;;16.42;;
12433;SDS011;6281;49.038;8.372;2022-12-18T05:16:23;36.95;;;17.17;;
12433;SDS011;6281;49.038;8.372;2022-12-18T05:18:50;40.45;;;18.13;;
12433;SDS011;6281;49.038;8.372;2022-12-18T05:21:16;35.10;;;16.83;;
12433;SDS011;6281;49.038;8.372;2022-12-18T05:23:43;40.05;;;17.90;;
12433;SDS011;6281;49.038;8.372;2022-12-18T05:26:12;37.05;;;16.45;;
12433;SDS011;6281;49.038;8.372;2022-12-18T05:28:44;34.95;;;17.02;;
12433;SDS011;6281;49.038;8.372;2022-12-18T05:31:11;36.00;;;16.42;;
12433;SDS011;6281;49.038;8.372;2022-12-18T05:33:38;36.25;;;15.65;;
12433;SDS011;6281;49.038;8.372;2022-12-18T05:36:05;32.97;;;15.95;;
12433;SDS011;6281;49.038;8.372;2022-12-18T05:38:34;37.58;;;17.67;;
12433;SDS011;6281;49.038;8.372;2022-12-18T05:41:02;37.03;;;15.90;;
12433;SDS011;6281;49.038;8.372;2022-12-18T05:43:29;36.20;;;17.35;;
12433;SDS011;6281;49.038;8.372;2022-12-18T05:45:57;38.40;;;17.65;;
12433;SDS011;6281;49.038;8.372;2022-12-18T05:48:29;35.05;;;15.80;;
12433;SDS011;6281;49.038;8.372;2022-12-18T05:50:55;35.65;;;15.68;;
12433;SDS011;6281;49.038;8.372;2022-12-18T05:53:29;28.73;;;15.07;;
12433;SDS011;6281;49.038;8.372;2022-12-18T05:55:59;31.33;;;14.35;;
12433;SDS011;6281;49.038;8.372;2022-12-18T05:58:26;38.63;;;17.20;;
12433;SDS011;6281;49.038;8.372;2022-12-18T06:00:53;34.58;;;16.55;;
12433;SDS011;6281;49.038;8.372;2022-12-18T06:03:21;37.58;;;16.90;;
12433;SDS011;6281;49.038;8.372;2022-12-18T06:05:48;41.17;;;18.10;;
12433;SDS011;6281;49.038;8.372;2022-12-18T06:08:15;36.05;;;17.10;;
12433;SDS011;6281;49.038;8.372;2022-12-18T06:10:42;39.67;;;17.88;;
12433;SDS011;6281;49.038;8.372;2022-12-18T06:13:16;42.92;;;18.80;;
12433;SDS011;6281;49.038;8.372;2022-12-18T06:15:43;44.33;;;19.00;;
12433;SDS011;6281;49.038;8.372;2022-12-18T06:18:09;45.42;;;20.65;;
12433;SDS011;6281;49.038;8.372;2022-12-18T06:20:38;39.42;;;19.10;;
12433;SDS011;6281;49.038;8.372;2022-12-18T06:23:06;38.83;;;18.45;;
12433;SDS011;6281;49.038;8.372;2022-12-18T06:25:36;40.83;;;19.80;;
12433;SDS011;6281;49.038;8.372;2022-12-18T06:28:05;42.42;;;18.98;;
12433;SDS011;6281;49.038;8.372;2022-12-18T06:30:32;42.22;;;19.40;;
12433;SDS011;6281;49.038;8.372;2022-12-18T06:32:59;38.70;;;17.90;;
12433;SDS011;6281;49.038;8.372;2022-12-18T06:38:38;40.42;;;17.08;;
12433;SDS011;6281;49.038;8.372;2022-12-18T06:41:07;43.72;;;18.92;;
12433;SDS011;6281;49.038;8.372;2022-12-18T06:43:34;44.30;;;18.73;;
12433;SDS011;6281;49.038;8.372;2022-12-18T06:48:32;38.88;;;16.40;;
12433;SDS011;6281;49.038;8.372;2022-12-18T06:50:59;44.38;;;18.48;;
12433;SDS011;6281;49.038;8.372;2022-12-18T06:53:26;38.58;;;17.67;;
12433;SDS011;6281;49.038;8.372;2022-12-18T06:56:00;35.33;;;17.80;;
12433;SDS011;6281;49.038;8.372;2022-12-18T06:58:27;35.95;;;16.55;;
12433;SDS011;6281;49.038;8.372;2022-12-18T07:00:58;38.90;;;17.33;;
12433;SDS011;6281;49.038;8.372;2022-12-18T07:03:26;41.38;;;16.63;;
12433;SDS011;6281;49.038;8.372;2022-12-18T07:05:53;45.45;;;18.95;;
12433;SDS011;6281;49.038;8.372;2022-12-18T07:08:20;32.53;;;15.50;;
12433;SDS011;6281;49.038;8.372;2022-12-18T07:10:47;35.50;;;16.63;;
12433;SDS011;6281;49.038;8.372;2022-12-18T07:13:16;45.15;;;17.98;;
12433;SDS011;6281;49.038;8.372;2022-12-18T07:15:43;54.58;;;20.27;;
12433;SDS011;6281;49.038;8.372;2022-12-18T07:18:10;43.10;;;19.23;;
12433;SDS011;6281;49.038;8.372;2022-12-18T07:20:37;55.88;;;19.27;;
12433;SDS011;6281;49.038;8.372;2022-12-18T07:23:04;40.50;;;17.45;;
12433;SDS011;6281;49.038;8.372;2022-12-18T07:25:33;42.45;;;17.02;;
12433;SDS011;6281;49.038;8.372;2022-12-18T07:28:00;44.17;;;17.23;;
12433;SDS011;6281;49.038;8.372;2022-12-18T07:30:28;48.17;;;19.42;;
12433;SDS011;6281;49.038;8.372;2022-12-18T07:32:55;46.40;;;19.88;;
12433;SDS011;6281;49.038;8.372;2022-12-18T07:35:22;43.33;;;18.08;;
12433;SDS011;6281;49.038;8.372;2022-12-18T07:37:49;40.28;;;18.70;;
12433;SDS011;6281;49.038;8.372;2022-12-18T07:40:16;42.70;;;17.67;;
12433;SDS011;6281;49.038;8.372;2022-12-18T07:42:43;49.42;;;18.92;;
12433;SDS011;6281;49.038;8.372;2022-12-18T07:45:09;50.70;;;19.27;;
12433;SDS011;6281;49.038;8.372;2022-12-18T07:47:38;44.67;;;18.88;;
12433;SDS011;6281;49.038;8.372;2022-12-18T07:50:06;42.80;;;19.10;;
12433;SDS011;6281;49.038;8.372;2022-12-18T07:52:33;47.60;;;19.13;;
12433;SDS011;6281;49.038;8.372;2022-12-18T07:55:00;46.83;;;19.23;;
12433;SDS011;6281;49.038;8.372;2022-12-18T07:57:27;43.60;;;19.50;;
12433;SDS011;6281;49.038;8.372;2022-12-18T07:59:54;38.85;;;16.92;;
12433;SDS011;6281;49.038;8.372;2022-12-18T08:02:21;38.40;;;16.02;;
12433;SDS011;6281;49.038;8.372;2022-12-18T08:04:49;48.85;;;19.15;;
12433;SDS011;6281;49.038;8.372;2022-12-18T08:07:16;47.08;;;18.90;;
12433;SDS011;6281;49.038;8.372;2022-12-18T08:09:43;42.03;;;17.73;;
12433;SDS011;6281;49.038;8.372;2022-12-18T08:12:10;49.55;;;19.17;;
12433;SDS011;6281;49.038;8.372;2022-12-18T08:14:37;49.70;;;16.98;;
12433;SDS011;6281;49.038;8.372;2022-12-18T08:17:04;45.47;;;19.52;;
12433;SDS011;6281;49.038;8.372;2022-12-18T08:19:31;49.25;;;17.60;;
12433;SDS011;6281;49.038;8.372;2022-12-18T08:21:59;41.80;;;18.75;;
12433;SDS011;6281;49.038;8.372;2022-12-18T08:24:26;45.40;;;17.70;;
12433;SDS011;6281;49.038;8.372;2022-12-18T08:26:53;45.92;;;18.60;;
12433;SDS011;6281;49.038;8.372;2022-12-18T08:29:22;52.47;;;17.70;;
12433;SDS011;6281;49.038;8.372;2022-12-18T08:31:49;45.67;;;18.20;;
12433;SDS011;6281;49.038;8.372;2022-12-18T08:34:16;49.20;;;18.73;;
12433;SDS011;6281;49.038;8.372;2022-12-18T08:36:42;42.17;;;18.48;;
12433;SDS011;6281;49.038;8.372;2022-12-18T08:39:11;46.30;;;18.08;;
12433;SDS011;6281;49.038;8.372;2022-12-18T08:41:38;43.30;;;18.08;;
12433;SDS011;6281;49.038;8.372;2022-12-18T08:44:06;44.50;;;18.48;;
12433;SDS011;6281;49.038;8.372;2022-12-18T08:46:51;46.97;;;18.25;;
12433;SDS011;6281;49.038;8.372;2022-12-18T08:49:18;36.53;;;16.15;;
12433;SDS011;6281;49.038;8.372;2022-12-18T08:51:45;45.72;;;18.85;;
12433;SDS011;6281;49.038;8.372;2022-12-18T08:54:13;48.70;;;20.00;;
12433;SDS011;6281;49.038;8.372;2022-12-18T08:56:40;43.65;;;19.15;;
12433;SDS011;6281;49.038;8.372;2022-12-18T08:59:08;43.08;;;19.55;;
12433;SDS011;6281;49.038;8.372;2022-12-18T09:01:35;43.40;;;18.15;;
12433;SDS011;6281;49.038;8.372;2022-12-18T09:04:02;40.03;;;16.45;;
12433;SDS011;6281;49.038;8.372;2022-12-18T09:06:29;55.13;;;21.48;;
12433;SDS011;6281;49.038;8.372;2022-12-18T09:08:56;46.53;;;19.65;;
12433;SDS011;6281;49.038;8.372;2022-12-18T09:11:26;41.92;;;18.40;;
12433;SDS011;6281;49.038;8.372;2022-12-18T09:13:54;41.40;;;17.40;;
12433;SDS011;6281;49.038;8.372;2022-12-18T09:16:22;43.67;;;16.70;;
12433;SDS011;6281;49.038;8.372;2022-12-18T09:18:49;40.70;;;17.35;;
12433;SDS011;6281;49.038;8.372;2022-12-18T09:21:19;43.63;;;17.88;;
12433;SDS011;6281;49.038;8.372;2022-12-18T09:23:48;41.55;;;17.30;;
12433;SDS011;6281;49.038;8.372;2022-12-18T09:26:16;40.00;;;17.15;;
12433;SDS011;6281;49.038;8.372;2022-12-18T09:28:44;44.40;;;19.67;;
12433;SDS011;6281;49.038;8.372;2022-12-18T09:31:12;43.20;;;19.77;;
12433;SDS011;6281;49.038;8.372;2022-12-18T09:33:39;44.17;;;19.17;;
12433;SDS011;6281;49.038;8.372;2022-12-18T09:36:07;48.50;;;21.05;;
12433;SDS011;6281;49.038;8.372;2022-12-18T09:38:35;43.47;;;19.38;;
12433;SDS011;6281;49.038;8.372;2022-12-18T09:41:03;48.80;;;19.23;;
12433;SDS011;6281;49.038;8.372;2022-12-18T09:43:41;42.10;;;18.20;;
12433;SDS011;6281;49.038;8.372;2022-12-18T09:46:15;46.70;;;20.13;;
12433;SDS011;6281;49.038;8.372;2022-12-18T09:48:46;46.13;;;17.95;;
12433;SDS011;6281;49.038;8.372;2022-12-18T09:51:16;40.13;;;18.80;;
12433;SDS011;6281;49.038;8.372;2022-12-18T09:53:46;46.50;;;19.85;;
12433;SDS011;6281;49.038;8.372;2022-12-18T09:56:19;47.72;;;19.70;;
12433;SDS011;6281;49.038;8.372;2022-12-18T09:58:49;48.50;;;19.52;;
12433;SDS011;6281;49.038;8.372;2022-12-18T10:01:23;48.15;;;19.90;;
12433;SDS011;6281;49.038;8.372;2022-12-18T10:03:50;47.42;;;19.23;;
12433;SDS011;6281;49.038;8.372;2022-12-18T10:06:19;44.83;;;19.67;;
12433;SDS011;6281;49.038;8.372;2022-12-18T10:08:51;48.72;;;20.00;;
12433;SDS011;6281;49.038;8.372;2022-12-18T10:11:27;42.60;;;19.48;;
12433;SDS011;6281;49.038;8.372;2022-12-18T10:14:01;46.80;;;21.35;;
12433;SDS011;6281;49.038;8.372;2022-12-18T10:16:35;57.55;;;21.55;;
12433;SDS011;6281;49.038;8.372;2022-12-18T10:19:12;53.63;;;21.83;;
12433;SDS011;6281;49.038;8.372;2022-12-18T10:21:49;44.88;;;19.58;;
12433;SDS011;6281;49.038;8.372;2022-12-18T10:24:27;47.42;;;20.70;;
12433;SDS011;6281;49.038;8.372;2022-12-18T10:27:07;56.72;;;22.20;;
12433;SDS011;6281;49.038;8.372;2022-12-18T10:29:39;50.72;;;20.33;;
12433;SDS011;6281;49.038;8.372;2022-12-18T10:32:10;50.72;;;21.15;;
12433;SDS011;6281;49.038;8.372;2022-12-18T10:34:45;53.25;;;22.05;;
12433;SDS011;6281;49.038;8.372;2022-12-18T10:37:14;51.90;;;21.33;;
12433;SDS011;6281;49.038;8.372;2022-12-18T10:39:43;48.35;;;23.33;;
12433;SDS011;6281;49.038;8.372;2022-12-18T10:42:14;50.45;;;21.80;;
12433;SDS011;6281;49.038;8.372;2022-12-18T10:44:43;46.00;;;21.10;;
12433;SDS011;6281;49.038;8.372;2022-12-18T10:47:12;47.40;;;20.40;;
12433;SDS011;6281;49.038;8.372;2022-12-18T10:49:47;49.20;;;21.13;;
12433;SDS011;6281;49.038;8.372;2022-12-18T10:52:17;47.50;;;20.73;;
12433;SDS011;6281;49.038;8.372;2022-12-18T10:54:46;43.60;;;20.95;;
12433;SDS011;6281;49.038;8.372;2022-12-18T10:57:16;46.15;;;21.88;;
12433;SDS011;6281;49.038;8.372;2022-12-18T10:59:55;47.65;;;20.80;;
12433;SDS011;6281;49.038;8.372;2022-12-18T11:02:26;47.53;;;20.42;;
12433;SDS011;6281;49.038;8.372;2022-12-18T11:04:59;47.70;;;21.77;;
12433;SDS011;6281;49.038;8.372;2022-12-18T11:07:26;53.13;;;23.58;;
12433;SDS011;6281;49.038;8.372;2022-12-18T11:10:16;49.55;;;22.50;;
12433;SDS011;6281;49.038;8.372;2022-12-18T11:12:44;54.33;;;22.60;;
12433;SDS011;6281;49.038;8.372;2022-12-18T11:15:14;53.65;;;23.35;;
12433;SDS011;6281;49.038;8.372;2022-12-18T11:17:46;47.55;;;21.90;;
12433;SDS011;6281;49.038;8.372;2022-12-18T11:20:24;51.88;;;22.92;;
12433;SDS011;6281;49.038;8.372;2022-12-18T11:22:57;45.38;;;21.55;;
12433;SDS011;6281;49.038;8.372;2022-12-18T11:25:28;51.05;;;22.75;;
12433;SDS011;6281;49.038;8.372;2022-12-18T11:27:56;48.17;;;21.70;;
12433;SDS011;6281;49.038;8.372;2022-12-18T11:30:26;50.70;;;23.27;;
12433;SDS011;6281;49.038;8.372;2022-12-18T11:33:01;53.17;;;23.20;;
12433;SDS011;6281;49.038;8.372;2022-12-18T11:35:36;57.85;;;24.80;;
12433;SDS011;6281;49.038;8.372;2022-12-18T11:38:12;52.13;;;23.85;;
12433;SDS011;6281;49.038;8.372;2022-12-18T11:40:45;55.53;;;23.20;;
12433;SDS011;6281;49.038;8.372;2022-12-18T11:43:17;51.63;;;24.13;;
12433;SDS011;6281;49.038;8.372;2022-12-18T11:45:52;58.63;;;24.75;;
12433;SDS011;6281;49.038;8.372;2022-12-18T11:48:25;57.72;;;25.08;;
12433;SDS011;6281;49.038;8.372;2022-12-18T11:50:56;50.53;;;23.67;;
12433;SDS011;6281;49.038;8.372;2022-12-18T11:53:26;52.33;;;22.95;;
12433;SDS011;6281;49.038;8.372;2022-12-18T11:56:00;49.25;;;22.17;;
12433;SDS011;6281;49.038;8.372;2022-12-18T11:58:35;45.92;;;21.77;;
12433;SDS011;6281;49.038;8.372;2022-12-18T12:01:13;40.17;;;20.25;;
12433;SDS011;6281;49.038;8.372;2022-12-18T12:03:52;40.53;;;19.85;;
12433;SDS011;6281;49.038;8.372;2022-12-18T12:06:39;42.33;;;19.42;;
12433;SDS011;6281;49.038;8.372;2022-12-18T12:09:17;43.38;;;19.67;;
12433;SDS011;6281;49.038;8.372;2022-12-18T12:11:52;43.20;;;19.77;;
12433;SDS011;6281;49.038;8.372;2022-12-18T12:14:34;45.13;;;19.67;;
12433;SDS011;6281;49.038;8.372;2022-12-18T12:17:11;47.35;;;21.98;;
12433;SDS011;6281;49.038;8.372;2022-12-18T12:19:48;40.50;;;19.25;;
12433;SDS011;6281;49.038;8.372;2022-12-18T12:22:24;45.13;;;20.75;;
12433;SDS011;6281;49.038;8.372;2022-12-18T12:25:01;45.42;;;20.98;;
12433;SDS011;6281;49.038;8.372;2022-12-18T12:27:42;36.47;;;18.37;;
12433;SDS011;6281;49.038;8.372;2022-12-18T12:30:18;40.53;;;19.20;;
12433;SDS011;6281;49.038;8.372;2022-12-18T12:32:50;45.00;;;21.50;;
12433;SDS011;6281;49.038;8.372;2022-12-18T12:35:46;43.63;;;20.73;;
12433;SDS011;6281;49.038;8.372;2022-12-18T12:38:19;47.93;;;22.27;;
12433;SDS011;6281;49.038;8.372;2022-12-18T12:40:51;47.73;;;22.10;;
12433;SDS011;6281;49.038;8.372;2022-12-18T12:43:24;45.07;;;21.17;;
12433;SDS011;6281;49.038;8.372;2022-12-18T12:45:57;47.50;;;23.20;;
12433;SDS011;6281;49.038;8.372;2022-12-18T12:48:31;43.10;;;21.83;;
12433;SDS011;6281;49.038;8.372;2022-12-18T12:51:09;44.03;;;22.67;;
12433;SDS011;6281;49.038;8.372;2022-12-18T12:53:40;50.80;;;23.17;;
12433;SDS011;6281;49.038;8.372;2022-12-18T12:56:08;47.13;;;21.10;;
12433;SDS011;6281;49.038;8.372;2022-12-18T12:58:39;37.00;;;19.47;;
12433;SDS011;6281;49.038;8.372;2022-12-18T13:01:14;45.00;;;21.10;;
12433;SDS011;6281;49.038;8.372;2022-12-18T13:03:51;45.90;;;22.83;;
12433;SDS011;6281;49.038;8.372;2022-12-18T13:06:30;40.93;;;21.47;;
12433;SDS011;6281;49.038;8.372;2022-12-18T13:11:55;51.10;;;22.13;;
12433;SDS011;6281;49.038;8.372;2022-12-18T13:14:46;44.97;;;22.87;;
12433;SDS011;6281;49.038;8.372;2022-12-18T13:17:25;44.17;;;21.27;;
12433;SDS011;6281;49.038;8.372;2022-12-18T13:20:03;51.63;;;23.10;;
12433;SDS011;6281;49.038;8.372;2022-12-18T13:22:35;43.87;;;23.03;;
12433;SDS011;6281;49.038;8.372;2022-12-18T13:28:00;49.50;;;23.37;;
12433;SDS011;6281;49.038;8.372;2022-12-18T13:33:35;44.03;;;20.73;;
12433;SDS011;6281;49.038;8.372;2022-12-18T13:36:13;39.80;;;20.00;;
12433;SDS011;6281;49.038;8.372;2022-12-18T13:38:43;37.73;;;20.13;;
12433;SDS011;6281;49.038;8.372;2022-12-18T13:41:24;44.17;;;21.40;;
12433;SDS011;6281;49.038;8.372;2022-12-18T13:43:53;40.80;;;21.40;;
12433;SDS011;6281;49.038;8.372;2022-12-18T13:46:24;42.43;;;22.77;;
12433;SDS011;6281;49.038;8.372;2022-12-18T13:48:55;39.67;;;19.93;;
12433;SDS011;6281;49.038;8.372;2022-12-18T13:51:26;40.53;;;20.80;;
12433;SDS011;6281;49.038;8.372;2022-12-18T13:53:56;42.23;;;21.87;;
12433;SDS011;6281;49.038;8.372;2022-12-18T13:56:27;41.20;;;21.73;;
12433;SDS011;6281;49.038;8.372;2022-12-18T13:59:16;39.80;;;21.77;;
12433;SDS011;6281;49.038;8.372;2022-12-18T14:01:45;42.20;;;22.10;;
12433;SDS011;6281;49.038;8.372;2022-12-18T14:04:18;43.40;;;22.80;;
12433;SDS011;6281;49.038;8.372;2022-12-18T14:06:47;45.03;;;21.43;;
12433;SDS011;6281;49.038;8.372;2022-12-18T14:09:16;39.97;;;22.05;;
12433;SDS011;6281;49.038;8.372;2022-12-18T14:11:46;42.08;;;20.88;;
12433;SDS011;6281;49.038;8.372;2022-12-18T14:14:14;48.85;;;22.52;;
12433;SDS011;6281;49.038;8.372;2022-12-18T14:16:43;42.50;;;20.48;;
12433;SDS011;6281;49.038;8.372;2022-12-18T14:19:12;41.33;;;19.67;;
12433;SDS011;6281;49.038;8.372;2022-12-18T14:21:44;43.15;;;21.45;;
12433;SDS011;6281;49.038;8.372;2022-12-18T14:24:13;46.80;;;21.52;;
12433;SDS011;6281;49.038;8.372;2022-12-18T14:26:43;35.80;;;18.02;;
12433;SDS011;6281;49.038;8.372;2022-12-18T14:29:24;45.13;;;22.23;;
12433;SDS011;6281;49.038;8.372;2022-12-18T14:32:09;54.80;;;24.23;;
12433;SDS011;6281;49.038;8.372;2022-12-18T14:34:39;45.40;;;22.50;;
12433;SDS011;6281;49.038;8.372;2022-12-18T14:37:08;46.28;;;22.75;;
12433;SDS011;6281;49.038;8.372;2022-12-18T14:39:37;46.95;;;22.05;;
12433;SDS011;6281;49.038;8.372;2022-12-18T14:42:09;42.83;;;21.38;;
12433;SDS011;6281;49.038;8.372;2022-12-18T14:44:36;47.90;;;22.80;;
12433;SDS011;6281;49.038;8.372;2022-12-18T14:47:03;46.95;;;22.55;;
12433;SDS011;6281;49.038;8.372;2022-12-18T14:49:31;45.30;;;23.00;;
12433;SDS011;6281;49.038;8.372;2022-12-18T14:52:02;47.10;;;24.02;;
12433;SDS011;6281;49.038;8.372;2022-12-18T14:54:31;57.78;;;25.90;;
12433;SDS011;6281;49.038;8.372;2022-12-18T14:57:00;47.70;;;24.55;;
12433;SDS011;6281;49.038;8.372;2022-12-18T14:59:30;45.05;;;22.92;;
12433;SDS011;6281;49.038;8.372;2022-12-18T15:01:59;53.65;;;25.33;;
12433;SDS011;6281;49.038;8.372;2022-12-18T15:04:29;51.60;;;23.40;;
12433;SDS011;6281;49.038;8.372;2022-12-18T15:07:06;47.92;;;24.98;;
12433;SDS011;6281;49.038;8.372;2022-12-18T15:09:37;51.88;;;23.15;;
12433;SDS011;6281;49.038;8.372;2022-12-18T15:12:15;52.40;;;26.75;;
12433;SDS011;6281;49.038;8.372;2022-12-18T15:14:53;45.38;;;24.13;;